createdAt,value
2022-11-24T00:02:00.672Z,26.80
2022-11-24T00:07:09.350Z,27.43
2022-11-24T00:12:17.123Z,25.87
2022-11-24T00:17:25.249Z,28.03
2022-11-24T00:22:33.889Z,26.37
2022-11-24T00:27:42.581Z,24.17
2022-11-24T00:32:50.837Z,23.30
2022-11-24T00:38:00.791Z,24.87
2022-11-24T00:43:08.507Z,23.77
2022-11-24T00:48:15.940Z,23.63
2022-11-24T00:53:23.712Z,22.90
2022-11-24T00:58:32.861Z,24.33
2022-11-24T01:03:41.240Z,25.63
2022-11-24T01:08:48.778Z,26.80
2022-11-24T01:13:58.348Z,25.83
2022-11-24T01:19:06.334Z,28.53
2022-11-24T01:24:15.852Z,26.17
2022-11-24T01:29:23.945Z,29.27
2022-11-24T01:34:33.054Z,25.77
2022-11-24T01:39:40.959Z,24.40
2022-11-24T01:44:49.643Z,26.03
2022-11-24T01:49:58.807Z,29.67
2022-11-24T01:55:11.633Z,28.13
2022-11-24T02:00:20.161Z,27.00
2022-11-24T02:05:42.724Z,27.13
2022-11-24T02:10:50.839Z,25.03
2022-11-24T02:15:58.830Z,27.33
2022-11-24T02:21:06.536Z,24.57
2022-11-24T02:26:45.095Z,26.87
2022-11-24T02:31:58.302Z,26.87
2022-11-24T02:37:06.122Z,31.17
2022-11-24T02:42:13.962Z,25.33
2022-11-24T02:47:22.221Z,24.60
2022-11-24T02:52:29.942Z,23.17
2022-11-24T02:57:37.825Z,27.40
2022-11-24T03:02:48.187Z,24.87
2022-11-24T03:07:58.362Z,27.67
2022-11-24T03:13:06.130Z,29.87
2022-11-24T03:18:14.740Z,24.90
2022-11-24T03:23:22.452Z,25.73
2022-11-24T03:28:31.497Z,28.87
2022-11-24T03:33:40.419Z,27.43
2022-11-24T03:38:48.501Z,26.70
2022-11-24T03:43:56.221Z,27.23
2022-11-24T03:49:04.116Z,30.40
2022-11-24T03:54:13.463Z,29.50
2022-11-24T03:59:21.222Z,26.60
2022-11-24T04:04:29.003Z,23.30
2022-11-24T04:09:36.872Z,24.77
2022-11-24T04:14:45.538Z,25.53
2022-11-24T04:19:53.245Z,25.47
2022-11-24T04:25:01.758Z,26.97
2022-11-24T04:30:10.865Z,25.50
2022-11-24T04:35:18.650Z,26.47
2022-11-24T04:40:26.405Z,26.63
2022-11-24T04:45:36.655Z,27.27
2022-11-24T04:50:43.928Z,26.20
2022-11-24T04:55:51.788Z,27.40
2022-11-24T05:00:59.486Z,26.97
2022-11-24T05:06:09.238Z,26.40
2022-11-24T05:11:17.055Z,27.10
2022-11-24T05:16:24.789Z,27.00
2022-11-24T05:21:33.198Z,26.07
2022-11-24T05:26:40.979Z,25.70
2022-11-24T05:31:49.337Z,26.70
2022-11-24T05:37:00.312Z,27.40
2022-11-24T05:42:26.304Z,27.67
2022-11-24T05:47:34.336Z,25.63
2022-11-24T05:52:42.102Z,26.47
2022-11-24T05:57:49.692Z,25.67
2022-11-24T06:02:58.778Z,24.90
2022-11-24T06:08:06.863Z,25.90
2022-11-24T06:13:14.415Z,28.60
2022-11-24T06:18:22.303Z,26.90
2022-11-24T06:23:30.127Z,29.33
2022-11-24T06:28:38.630Z,28.53
2022-11-24T06:33:47.950Z,26.70
2022-11-24T06:38:56.342Z,25.67
2022-11-24T06:44:05.470Z,30.67
2022-11-24T06:49:13.283Z,32.33
2022-11-24T06:54:22.597Z,29.83
2022-11-24T06:59:30.356Z,32.50
2022-11-24T07:04:37.980Z,29.43
2022-11-24T07:09:46.197Z,29.80
2022-11-24T07:14:53.921Z,33.77
2022-11-24T07:20:02.209Z,33.17
2022-11-24T07:25:10.560Z,37.13
2022-11-24T07:30:18.528Z,39.13
2022-11-24T07:35:27.141Z,44.23
2022-11-24T07:40:35.421Z,50.30
2022-11-24T07:45:43.176Z,50.13
2022-11-24T07:50:55.473Z,49.07
2022-11-24T07:56:01.287Z,53.37
2022-11-24T08:01:17.473Z,59.33
2022-11-24T08:06:29.070Z,57.47
2022-11-24T08:11:35.058Z,52.70
2022-11-24T08:16:42.914Z,54.13
2022-11-24T08:21:50.916Z,49.30
2022-11-24T08:26:59.669Z,45.70
2022-11-24T08:32:07.921Z,41.90
2022-11-24T08:37:17.400Z,43.40
2022-11-24T08:42:26.070Z,44.50
2022-11-24T08:47:34.057Z,41.17
2022-11-24T08:52:42.559Z,35.07
2022-11-24T08:57:50.249Z,36.03
2022-11-24T09:02:58.216Z,33.37
2022-11-24T09:08:06.983Z,32.00
2022-11-24T09:13:15.524Z,29.60
2022-11-24T09:18:27.589Z,31.53
2022-11-24T09:23:33.051Z,28.77
2022-11-24T09:28:41.133Z,28.37
2022-11-24T09:33:48.765Z,26.83
2022-11-24T09:38:58.472Z,30.30
2022-11-24T09:44:17.582Z,30.57
2022-11-24T09:49:51.055Z,33.77
2022-11-24T09:54:58.583Z,24.03
2022-11-24T10:00:09.561Z,34.47
2022-11-24T10:05:17.731Z,66.57
2022-11-24T10:10:27.198Z,34.57
2022-11-24T10:15:38.622Z,34.77
2022-11-24T10:21:26.117Z,33.47
2022-11-24T10:26:40.512Z,32.30
2022-11-24T10:31:48.552Z,30.23
2022-11-24T10:37:03.800Z,35.20
2022-11-24T10:42:20.319Z,37.13
2022-11-24T10:47:28.075Z,32.23
2022-11-24T10:52:43.957Z,32.53
2022-11-24T10:57:51.662Z,36.43
2022-11-24T11:03:22.053Z,31.00
2022-11-24T11:08:31.148Z,43.80
2022-11-24T11:13:39.102Z,36.00
2022-11-24T11:18:48.182Z,34.57
2022-11-24T11:23:57.017Z,36.90
2022-11-24T11:34:28.596Z,38.30
2022-11-24T11:39:37.929Z,42.90
2022-11-24T11:44:56.280Z,36.70
2022-11-24T11:50:05.351Z,34.93
2022-11-24T11:55:24.838Z,39.40
2022-11-24T12:00:33.467Z,38.33
2022-11-24T12:06:04.282Z,35.63
2022-11-24T12:11:25.179Z,39.30
2022-11-24T12:17:01.224Z,37.97
2022-11-24T12:22:27.103Z,39.03
2022-11-24T12:27:47.529Z,38.00
2022-11-24T12:33:13.803Z,36.30
2022-11-24T12:38:33.483Z,34.37
2022-11-24T12:43:42.235Z,36.03
2022-11-24T12:49:14.921Z,35.07
2022-11-24T12:54:22.790Z,34.03
2022-11-24T12:59:37.193Z,33.93
2022-11-24T13:04:50.339Z,33.10
2022-11-24T13:10:54.114Z,35.50
2022-11-24T13:16:35.302Z,37.03
2022-11-24T13:21:27.390Z,40.63
2022-11-24T13:26:45.564Z,37.83
2022-11-24T13:31:53.497Z,35.73
2022-11-24T13:37:32.102Z,39.00
2022-11-24T13:42:41.137Z,38.07
2022-11-24T13:47:41.563Z,38.93
2022-11-24T13:52:52.739Z,38.47
2022-11-24T13:58:16.010Z,37.77
2022-11-24T14:03:30.365Z,44.00
2022-11-24T14:08:38.450Z,37.13
2022-11-24T14:13:46.209Z,35.00
2022-11-24T14:18:55.294Z,32.37
2022-11-24T14:24:06.209Z,33.40
2022-11-24T14:29:20.757Z,34.70
2022-11-24T14:34:30.949Z,31.97
2022-11-24T14:39:42.229Z,35.63
2022-11-24T14:44:55.909Z,33.57
2022-11-24T14:50:14.622Z,39.40
2022-11-24T14:55:31.819Z,43.00
2022-11-24T15:00:39.697Z,42.17
2022-11-24T15:05:59.899Z,92.13
2022-11-24T15:11:07.786Z,54.47
2022-11-24T15:16:20.152Z,44.10
2022-11-24T15:21:36.518Z,51.03
2022-11-24T15:26:44.359Z,53.47
2022-11-24T15:31:53.085Z,44.77
2022-11-24T15:37:01.490Z,50.93
2022-11-24T15:42:10.910Z,39.37
2022-11-24T15:47:19.398Z,34.10
2022-11-24T15:52:27.181Z,35.23
2022-11-24T15:57:35.715Z,32.00
2022-11-24T16:02:43.728Z,33.02
2022-11-24T16:07:51.429Z,37.27
2022-11-24T16:12:59.163Z,39.50
2022-11-24T16:18:07.511Z,52.20
2022-11-24T16:23:15.269Z,44.80
2022-11-24T16:28:24.016Z,46.73
2022-11-24T16:33:32.053Z,43.53
2022-11-24T16:38:39.768Z,48.93
2022-11-24T16:43:47.513Z,59.87
2022-11-24T16:48:55.785Z,62.17
2022-11-24T16:54:03.965Z,50.23
2022-11-24T16:59:12.340Z,54.47
2022-11-24T17:04:20.057Z,49.93
2022-11-24T17:09:28.772Z,51.53
2022-11-24T17:14:37.243Z,44.50
2022-11-24T17:19:45.295Z,45.87
2022-11-24T17:24:53.046Z,56.13
2022-11-24T17:30:01.617Z,54.83
2022-11-24T17:35:09.671Z,50.17
2022-11-24T17:40:28.383Z,48.33
2022-11-24T17:45:35.356Z,47.27
2022-11-24T17:50:43.372Z,45.23
2022-11-24T17:55:55.872Z,40.47
2022-11-24T18:01:07.830Z,42.37
2022-11-24T18:06:17.339Z,47.60
2022-11-24T18:11:31.776Z,49.07
2022-11-24T18:16:41.528Z,52.40
2022-11-24T18:21:49.750Z,51.98
2022-11-24T18:26:57.523Z,57.33
2022-11-24T18:32:05.632Z,52.20
2022-11-24T18:37:15.066Z,61.20
2022-11-24T18:42:24.861Z,53.03
2022-11-24T18:47:34.054Z,51.07
2022-11-24T18:52:42.240Z,48.20
2022-11-24T18:57:51.091Z,45.77
2022-11-24T19:03:02.410Z,45.73
2022-11-24T19:08:10.458Z,55.23
2022-11-24T19:13:18.275Z,58.10
2022-11-24T19:18:26.049Z,62.03
2022-11-24T19:23:33.876Z,49.83
2022-11-24T19:28:41.937Z,57.57
2022-11-24T19:33:50.645Z,57.77
2022-11-24T19:38:59.930Z,64.90
2022-11-24T19:44:08.355Z,61.10
2022-11-24T19:49:16.775Z,60.80
2022-11-24T19:54:26.358Z,50.10
2022-11-24T19:59:34.700Z,49.37
2022-11-24T20:04:44.239Z,45.53
2022-11-24T20:09:52.015Z,61.33
2022-11-24T20:15:00.519Z,74.57
2022-11-24T20:20:08.954Z,67.70
2022-11-24T20:25:16.953Z,66.23
2022-11-24T20:30:27.044Z,75.90
2022-11-24T20:35:37.114Z,72.10
2022-11-24T20:40:44.776Z,66.23
2022-11-24T20:45:52.820Z,70.10
2022-11-24T20:51:11.496Z,66.93
2022-11-24T20:56:21.888Z,63.57
2022-11-24T21:01:33.806Z,55.03
2022-11-24T21:06:42.338Z,47.70
2022-11-24T21:11:51.005Z,51.87
2022-11-24T21:16:58.862Z,54.53
2022-11-24T21:22:07.551Z,59.77
2022-11-24T21:27:15.265Z,59.57
2022-11-24T21:32:23.311Z,60.70
2022-11-24T21:37:31.606Z,66.93
2022-11-24T21:42:39.414Z,57.90
2022-11-24T21:47:48.028Z,59.83
2022-11-24T21:53:00.588Z,70.20
2022-11-24T21:58:07.136Z,70.53
2022-11-24T22:03:14.869Z,76.33
2022-11-24T22:08:23.598Z,70.87
2022-11-24T22:13:31.739Z,70.33
2022-11-24T22:18:41.058Z,62.27
2022-11-24T22:23:51.048Z,54.40
2022-11-24T22:28:59.196Z,56.23
2022-11-24T22:34:07.291Z,69.37
2022-11-24T22:39:15.031Z,59.83
2022-11-24T22:44:22.752Z,59.57
2022-11-24T22:49:30.792Z,56.13
2022-11-24T22:54:38.609Z,51.53
2022-11-24T22:59:46.578Z,61.93
2022-11-24T23:04:54.838Z,61.87
2022-11-24T23:10:04.215Z,60.70
2022-11-24T23:15:12.209Z,65.23
2022-11-24T23:20:20.260Z,70.23
2022-11-24T23:25:28.821Z,60.37
2022-11-24T23:30:36.506Z,86.73
2022-11-24T23:35:44.214Z,78.30
2022-11-24T23:40:51.959Z,66.30
2022-11-24T23:46:08.341Z,68.77
2022-11-24T23:51:21.302Z,62.90
2022-11-24T23:56:32.939Z,84.37
